createdAt,value
2018-04-30T00:02:23.856Z,4.83
2018-04-30T00:04:50.100Z,4.57
2018-04-30T00:07:16.337Z,4.10
2018-04-30T00:09:42.563Z,4.50
2018-04-30T00:12:08.761Z,4.07
2018-04-30T00:14:34.981Z,5.30
2018-04-30T00:17:01.229Z,5.10
2018-04-30T00:19:27.448Z,4.97
2018-04-30T00:21:53.663Z,4.40
2018-04-30T00:24:19.905Z,4.33
2018-04-30T00:26:46.103Z,5.13
2018-04-30T00:29:12.330Z,4.47
2018-04-30T00:31:38.531Z,4.87
2018-04-30T00:34:05.152Z,4.23
2018-04-30T00:36:31.399Z,4.20
2018-04-30T00:38:57.991Z,4.27
2018-04-30T00:41:24.221Z,5.00
2018-04-30T00:43:50.438Z,4.50
2018-04-30T00:46:16.704Z,4.60
2018-04-30T00:48:42.924Z,4.50
2018-04-30T00:51:09.133Z,4.70
2018-04-30T00:53:35.318Z,5.00
2018-04-30T00:56:01.579Z,5.73
2018-04-30T00:58:28.382Z,5.10
2018-04-30T01:00:54.588Z,4.80
2018-04-30T01:03:20.822Z,5.00
2018-04-30T01:05:47.432Z,5.20
2018-04-30T01:08:13.647Z,5.67
2018-04-30T01:10:39.892Z,5.20
2018-04-30T01:13:06.111Z,4.93
2018-04-30T01:15:32.336Z,5.93
2018-04-30T01:17:58.532Z,5.50
2018-04-30T01:20:24.754Z,5.77
2018-04-30T01:22:50.946Z,5.83
2018-04-30T01:25:17.328Z,6.00
2018-04-30T01:27:43.517Z,4.70
2018-04-30T01:30:09.782Z,5.13
2018-04-30T01:32:35.976Z,4.40
2018-04-30T01:35:02.207Z,4.40
2018-04-30T01:37:28.462Z,4.20
2018-04-30T01:39:54.702Z,4.60
2018-04-30T01:42:20.923Z,5.00
2018-04-30T01:44:47.176Z,5.10
2018-04-30T01:47:13.374Z,5.10
2018-04-30T01:49:39.582Z,5.90
2018-04-30T01:52:05.831Z,6.00
2018-04-30T01:54:32.083Z,5.40
2018-04-30T01:56:58.362Z,5.77
2018-04-30T01:59:24.953Z,5.10
2018-04-30T02:01:51.154Z,6.20
2018-04-30T02:04:17.345Z,4.90
2018-04-30T02:06:43.942Z,5.10
2018-04-30T02:09:10.129Z,4.70
2018-04-30T02:11:36.356Z,3.03
2018-04-30T02:14:02.600Z,2.10
2018-04-30T02:16:28.811Z,1.87
2018-04-30T02:18:55.028Z,1.40
2018-04-30T02:21:21.664Z,1.20
2018-04-30T02:23:47.872Z,1.35
2018-04-30T02:26:14.122Z,0.90
2018-04-30T02:28:41.272Z,1.37
2018-04-30T02:31:07.500Z,0.90
2018-04-30T02:33:33.813Z,1.40
2018-04-30T02:36:00.680Z,1.10
2018-04-30T02:38:26.929Z,1.17
2018-04-30T02:40:53.159Z,1.05
2018-04-30T02:43:19.364Z,1.05
2018-04-30T02:45:45.602Z,0.93
2018-04-30T02:48:11.838Z,1.00
2018-04-30T02:50:38.094Z,0.82
2018-04-30T02:53:04.320Z,0.80
2018-04-30T02:55:30.540Z,0.65
2018-04-30T02:57:56.768Z,1.05
2018-04-30T03:00:23.012Z,0.65
2018-04-30T03:02:50.169Z,0.70
2018-04-30T03:05:16.389Z,0.70
2018-04-30T03:07:42.590Z,0.80
2018-04-30T03:10:08.816Z,0.75
2018-04-30T03:12:35.030Z,0.80
2018-04-30T03:15:01.262Z,0.82
2018-04-30T03:17:27.478Z,1.00
2018-04-30T03:19:53.712Z,0.60
2018-04-30T03:22:19.911Z,0.70
2018-04-30T03:24:46.904Z,0.70
2018-04-30T03:27:13.128Z,0.70
2018-04-30T03:29:39.352Z,0.70
2018-04-30T03:32:05.620Z,0.70
2018-04-30T03:34:31.816Z,1.30
2018-04-30T03:36:58.034Z,0.70
2018-04-30T03:39:24.255Z,0.70
2018-04-30T03:41:50.479Z,0.60
2018-04-30T03:44:16.681Z,0.50
2018-04-30T03:46:43.280Z,0.50
2018-04-30T03:49:09.486Z,0.55
2018-04-30T03:51:35.698Z,0.40
2018-04-30T03:54:01.904Z,0.60
2018-04-30T03:56:28.123Z,0.40
2018-04-30T03:58:54.319Z,0.50
2018-04-30T04:01:32.757Z,0.62
2018-04-30T04:04:11.152Z,0.60
2018-04-30T04:06:49.463Z,0.50
2018-04-30T04:09:15.660Z,0.60
2018-04-30T04:11:43.389Z,0.70
2018-04-30T04:14:09.962Z,0.50
2018-04-30T04:16:36.192Z,0.50
2018-04-30T04:19:02.406Z,0.90
2018-04-30T04:21:29.258Z,1.10
2018-04-30T04:23:55.475Z,0.60
2018-04-30T04:26:21.705Z,0.60
2018-04-30T04:28:47.915Z,0.60
2018-04-30T04:31:14.507Z,0.60
2018-04-30T04:33:41.542Z,0.80
2018-04-30T04:36:08.295Z,1.12
2018-04-30T04:38:34.503Z,1.15
2018-04-30T04:41:00.761Z,1.30
2018-04-30T04:43:26.970Z,1.50
2018-04-30T04:45:53.153Z,1.37
2018-04-30T04:48:19.732Z,1.15
2018-04-30T04:50:45.935Z,1.20
2018-04-30T04:53:12.143Z,0.73
2018-04-30T04:55:38.741Z,0.65
2018-04-30T04:58:05.005Z,1.05
2018-04-30T05:00:32.013Z,1.10
2018-04-30T05:02:58.267Z,0.90
2018-04-30T05:05:24.473Z,0.90
2018-04-30T05:07:50.716Z,1.17
2018-04-30T05:10:17.885Z,0.75
2018-04-30T05:12:45.245Z,0.90
2018-04-30T05:15:11.438Z,0.50
2018-04-30T05:17:37.669Z,0.68
2018-04-30T05:20:03.892Z,0.88
2018-04-30T05:22:30.138Z,0.60
2018-04-30T05:24:56.381Z,0.75
2018-04-30T05:27:22.980Z,0.70
2018-04-30T05:29:49.187Z,0.70
2018-04-30T05:32:15.452Z,0.85
2018-04-30T05:34:41.724Z,0.80
2018-04-30T05:37:07.973Z,0.98
2018-04-30T05:39:34.295Z,0.90
2018-04-30T05:42:00.521Z,0.80
2018-04-30T05:44:26.892Z,0.85
2018-04-30T05:46:53.214Z,0.90
2018-04-30T05:49:19.470Z,0.85
2018-04-30T05:51:45.661Z,1.00
2018-04-30T05:54:11.888Z,0.90
2018-04-30T05:56:38.082Z,0.73
2018-04-30T05:59:04.313Z,0.60
2018-04-30T06:01:31.056Z,0.85
2018-04-30T06:03:58.107Z,0.88
2018-04-30T06:06:24.339Z,0.90
2018-04-30T06:08:50.553Z,0.80
2018-04-30T06:11:16.756Z,1.20
2018-04-30T06:13:42.969Z,1.17
2018-04-30T06:16:09.168Z,0.90
2018-04-30T06:18:36.196Z,1.05
2018-04-30T06:21:02.419Z,1.10
2018-04-30T06:23:28.711Z,0.77
2018-04-30T06:25:54.917Z,1.62
2018-04-30T06:28:21.155Z,0.85
2018-04-30T06:30:47.356Z,0.93
2018-04-30T06:33:13.594Z,0.90
2018-04-30T06:35:40.408Z,0.90
2018-04-30T06:38:06.764Z,1.12
2018-04-30T06:40:32.998Z,1.00
2018-04-30T06:42:59.203Z,1.30
2018-04-30T06:45:25.431Z,0.88
2018-04-30T06:47:51.685Z,1.10
2018-04-30T06:50:17.889Z,2.20
2018-04-30T06:52:44.134Z,3.50
2018-04-30T06:55:10.348Z,2.20
2018-04-30T06:57:36.563Z,1.60
2018-04-30T07:00:02.861Z,1.33
2018-04-30T07:02:29.483Z,1.42
2018-04-30T07:04:55.709Z,2.00
2018-04-30T07:07:21.966Z,1.60
2018-04-30T07:09:48.204Z,1.70
2018-04-30T07:12:14.412Z,1.52
2018-04-30T07:14:40.993Z,1.30
2018-04-30T07:17:07.213Z,1.27
2018-04-30T07:19:33.464Z,1.80
2018-04-30T07:21:59.700Z,2.15
2018-04-30T07:24:25.900Z,1.50
2018-04-30T07:26:52.151Z,1.75
2018-04-30T07:29:18.381Z,1.20
2018-04-30T07:31:44.595Z,1.30
2018-04-30T07:34:10.818Z,1.80
2018-04-30T07:36:37.028Z,1.95
2018-04-30T07:39:03.286Z,1.67
2018-04-30T07:41:29.496Z,1.80
2018-04-30T07:43:55.745Z,1.40
2018-04-30T07:46:21.987Z,1.40
2018-04-30T07:48:48.608Z,1.33
2018-04-30T07:51:14.806Z,1.55
2018-04-30T07:53:41.052Z,1.40
2018-04-30T07:56:07.261Z,1.10
2018-04-30T07:58:33.493Z,1.27
2018-04-30T08:00:59.739Z,1.17
2018-04-30T08:03:25.973Z,1.30
2018-04-30T08:05:52.174Z,2.55
2018-04-30T08:08:18.402Z,1.23
2018-04-30T08:10:44.638Z,1.42
2018-04-30T08:13:10.909Z,1.30
2018-04-30T08:15:37.193Z,2.00
2018-04-30T08:18:03.417Z,0.95
2018-04-30T08:20:29.612Z,1.20
2018-04-30T08:22:56.276Z,1.23
2018-04-30T08:25:22.507Z,1.08
2018-04-30T08:27:49.676Z,1.10
2018-04-30T08:30:15.928Z,1.30
2018-04-30T08:32:42.143Z,1.20
2018-04-30T08:35:08.376Z,1.30
2018-04-30T08:37:34.624Z,1.25
2018-04-30T08:40:00.847Z,1.00
2018-04-30T08:42:27.125Z,1.00
2018-04-30T08:44:53.297Z,0.80
2018-04-30T08:47:19.501Z,0.90
2018-04-30T08:49:45.765Z,1.15
2018-04-30T08:52:12.023Z,0.70
2018-04-30T08:54:38.252Z,0.90
2018-04-30T08:57:04.514Z,0.70
2018-04-30T08:59:30.764Z,0.80
2018-04-30T09:01:57.003Z,0.80
2018-04-30T09:04:23.219Z,1.00
2018-04-30T09:06:49.437Z,0.82
2018-04-30T09:09:15.693Z,0.90
2018-04-30T09:11:41.896Z,0.77
2018-04-30T09:14:08.149Z,0.55
2018-04-30T09:16:34.379Z,0.60
2018-04-30T09:19:00.601Z,0.50
2018-04-30T09:21:26.820Z,0.50
2018-04-30T09:23:53.053Z,0.80
2018-04-30T09:26:19.281Z,0.60
2018-04-30T09:28:45.490Z,0.85
2018-04-30T09:31:11.738Z,0.90
2018-04-30T09:33:37.985Z,0.90
2018-04-30T09:36:04.616Z,0.80
2018-04-30T09:38:30.866Z,0.60
2018-04-30T09:40:57.143Z,0.80
2018-04-30T09:43:23.371Z,0.70
2018-04-30T09:45:49.574Z,0.80
2018-04-30T09:48:15.790Z,0.90
2018-04-30T09:50:42.011Z,1.00
2018-04-30T09:53:08.206Z,1.00
2018-04-30T09:55:34.448Z,0.70
2018-04-30T09:58:00.660Z,0.87
2018-04-30T10:00:26.893Z,0.60
2018-04-30T10:02:53.102Z,0.67
2018-04-30T10:05:19.329Z,0.70
2018-04-30T10:07:45.534Z,0.80
2018-04-30T10:10:11.776Z,0.60
2018-04-30T10:12:38.054Z,0.70
2018-04-30T10:15:04.335Z,0.90
2018-04-30T10:17:30.554Z,0.70
2018-04-30T10:19:56.802Z,0.90
2018-04-30T10:22:23.029Z,0.73
2018-04-30T10:24:50.235Z,0.80
2018-04-30T10:27:16.494Z,0.87
2018-04-30T10:29:42.700Z,1.20
2018-04-30T10:32:08.953Z,1.00
2018-04-30T10:34:35.181Z,0.70
2018-04-30T10:37:01.422Z,0.67
2018-04-30T10:39:27.637Z,0.70
2018-04-30T10:41:53.935Z,1.17
2018-04-30T10:44:20.142Z,0.80
2018-04-30T10:46:46.744Z,0.87
2018-04-30T10:49:12.950Z,0.97
2018-04-30T10:51:39.220Z,0.97
2018-04-30T10:54:05.420Z,0.83
2018-04-30T10:56:31.667Z,0.90
2018-04-30T10:58:57.900Z,0.60
2018-04-30T11:01:24.167Z,0.50
2018-04-30T11:03:50.742Z,0.90
2018-04-30T11:06:16.999Z,0.70
2018-04-30T11:08:43.184Z,0.80
2018-04-30T11:11:09.398Z,0.70
2018-04-30T11:13:35.608Z,0.73
2018-04-30T11:16:03.161Z,0.60
2018-04-30T11:18:29.829Z,0.90
2018-04-30T11:20:56.093Z,1.17
2018-04-30T11:23:22.356Z,0.80
2018-04-30T11:25:48.972Z,0.53
2018-04-30T11:28:15.200Z,0.77
2018-04-30T11:30:42.215Z,0.80
2018-04-30T11:33:08.532Z,0.93
2018-04-30T11:35:34.730Z,0.80
2018-04-30T11:38:00.964Z,0.80
2018-04-30T11:40:27.228Z,0.90
2018-04-30T11:42:53.476Z,1.10
2018-04-30T11:45:19.709Z,1.03
2018-04-30T11:47:46.066Z,0.80
2018-04-30T11:50:12.274Z,0.70
2018-04-30T11:52:38.493Z,0.80
2018-04-30T11:55:04.690Z,0.90
2018-04-30T11:57:30.965Z,0.90
2018-04-30T11:59:57.204Z,0.80
2018-04-30T12:02:23.530Z,0.80
2018-04-30T12:04:49.794Z,0.90
2018-04-30T12:07:15.948Z,1.00
2018-04-30T12:09:42.180Z,0.90
2018-04-30T12:12:08.428Z,1.20
2018-04-30T12:14:35.058Z,0.80
2018-04-30T12:17:01.371Z,1.00
2018-04-30T12:19:27.596Z,1.13
2018-04-30T12:21:53.853Z,0.87
2018-04-30T12:24:20.133Z,1.00
2018-04-30T12:26:46.418Z,1.20
2018-04-30T12:29:13.034Z,0.80
2018-04-30T12:31:39.304Z,1.03
2018-04-30T12:34:05.538Z,0.80
2018-04-30T12:36:31.815Z,0.80
2018-04-30T12:38:58.045Z,0.70
2018-04-30T12:41:24.260Z,0.70
2018-04-30T12:43:50.516Z,0.90
2018-04-30T12:46:16.747Z,0.60
2018-04-30T12:48:43.011Z,1.00
2018-04-30T12:51:09.541Z,0.80
2018-04-30T12:53:35.801Z,1.10
2018-04-30T12:56:02.080Z,0.80
2018-04-30T12:58:28.283Z,0.80
2018-04-30T13:00:54.536Z,0.73
2018-04-30T13:03:20.858Z,0.83
2018-04-30T13:05:47.118Z,0.77
2018-04-30T13:08:13.401Z,0.60
2018-04-30T13:10:39.667Z,0.90
2018-04-30T13:13:05.946Z,0.80
2018-04-30T13:15:32.227Z,1.00
2018-04-30T13:17:58.565Z,0.80
2018-04-30T13:20:24.803Z,0.80
2018-04-30T13:22:51.011Z,1.10
2018-04-30T13:25:17.279Z,0.70
2018-04-30T13:27:43.541Z,0.90
2018-04-30T13:30:09.747Z,0.80
2018-04-30T13:32:35.991Z,0.70
2018-04-30T13:35:02.204Z,0.90
2018-04-30T13:37:28.561Z,1.00
2018-04-30T13:39:54.976Z,0.70
2018-04-30T13:42:21.300Z,0.70
2018-04-30T13:44:47.514Z,1.00
2018-04-30T13:47:13.725Z,1.00
2018-04-30T13:49:39.988Z,1.07
2018-04-30T13:52:06.201Z,0.60
2018-04-30T13:54:32.480Z,0.80
2018-04-30T13:56:58.657Z,0.90
2018-04-30T13:59:24.914Z,1.00
2018-04-30T14:01:51.161Z,0.80
2018-04-30T14:04:17.349Z,0.50
2018-04-30T14:06:43.573Z,0.50
2018-04-30T14:09:09.797Z,0.70
2018-04-30T14:11:36.022Z,0.73
2018-04-30T14:14:02.316Z,0.73
2018-04-30T14:16:28.969Z,0.50
2018-04-30T14:18:55.237Z,0.50
2018-04-30T14:21:21.456Z,0.70
2018-04-30T14:23:47.675Z,0.60
2018-04-30T14:26:14.591Z,0.67
2018-04-30T14:28:41.160Z,0.67
2018-04-30T14:31:07.399Z,0.70
2018-04-30T14:33:33.626Z,0.50
2018-04-30T14:35:59.851Z,0.77
2018-04-30T14:38:26.144Z,0.80
2018-04-30T14:40:52.338Z,0.63
2018-04-30T14:43:18.611Z,0.70
2018-04-30T14:45:44.806Z,1.00
2018-04-30T14:48:11.058Z,1.13
2018-04-30T14:50:37.284Z,0.70
2018-04-30T14:53:03.889Z,0.70
2018-04-30T14:55:30.140Z,0.70
2018-04-30T14:57:56.728Z,0.90
2018-04-30T15:00:22.965Z,0.73
2018-04-30T15:02:49.261Z,0.83
2018-04-30T15:05:15.526Z,0.67
2018-04-30T15:07:41.738Z,0.70
2018-04-30T15:10:08.006Z,0.70
2018-04-30T15:12:34.249Z,0.60
2018-04-30T15:15:00.888Z,1.07
2018-04-30T15:17:27.508Z,0.77
2018-04-30T15:19:53.752Z,0.90
2018-04-30T15:22:20.344Z,0.90
2018-04-30T15:24:46.583Z,0.93
2018-04-30T15:27:12.776Z,0.50
2018-04-30T15:29:39.035Z,0.57
2018-04-30T15:32:05.292Z,0.80
2018-04-30T15:34:31.897Z,0.70
2018-04-30T15:36:58.116Z,0.73
2018-04-30T15:39:24.349Z,0.63
2018-04-30T15:41:50.573Z,0.70
2018-04-30T15:44:17.417Z,0.70
2018-04-30T15:46:43.644Z,0.70
2018-04-30T15:49:09.885Z,0.90
2018-04-30T15:51:36.112Z,0.70
2018-04-30T15:54:02.383Z,0.80
2018-04-30T15:56:28.968Z,0.70
2018-04-30T15:58:55.180Z,1.10
2018-04-30T16:01:21.417Z,0.80
2018-04-30T16:03:48.516Z,0.97
2018-04-30T16:06:15.114Z,1.00
2018-04-30T16:08:41.366Z,0.80
2018-04-30T16:11:07.652Z,1.27
2018-04-30T16:13:33.933Z,0.77
2018-04-30T16:16:00.545Z,0.60
2018-04-30T16:18:26.808Z,0.70
2018-04-30T16:20:53.417Z,0.87
2018-04-30T16:23:19.654Z,0.80
2018-04-30T16:25:45.896Z,1.00
2018-04-30T16:28:12.153Z,0.70
2018-04-30T16:30:38.401Z,0.67
2018-04-30T16:33:05.488Z,0.63
2018-04-30T16:35:32.658Z,1.00
2018-04-30T16:37:59.240Z,0.87
2018-04-30T16:40:25.511Z,0.60
2018-04-30T16:42:51.775Z,0.50
2018-04-30T16:45:18.030Z,0.80
2018-04-30T16:47:44.239Z,0.80
2018-04-30T16:50:10.485Z,0.50
2018-04-30T16:52:36.745Z,1.50
2018-04-30T16:55:03.012Z,0.80
2018-04-30T16:57:29.235Z,0.87
2018-04-30T16:59:55.894Z,1.00
2018-04-30T17:02:22.120Z,0.80
2018-04-30T17:04:48.373Z,0.93
2018-04-30T17:07:14.613Z,0.90
2018-04-30T17:09:40.863Z,0.70
2018-04-30T17:12:07.087Z,0.80
2018-04-30T17:14:33.296Z,1.07
2018-04-30T17:16:59.596Z,0.90
2018-04-30T17:19:25.785Z,0.67
2018-04-30T17:21:52.915Z,0.70
2018-04-30T17:24:19.229Z,1.07
2018-04-30T17:26:45.432Z,1.27
2018-04-30T17:29:11.648Z,1.07
2018-04-30T17:31:37.893Z,1.00
2018-04-30T17:34:04.149Z,0.80
2018-04-30T17:36:30.486Z,0.80
2018-04-30T17:38:56.686Z,0.70
2018-04-30T17:41:22.933Z,1.00
2018-04-30T17:43:49.180Z,1.10
2018-04-30T17:46:15.453Z,0.83
2018-04-30T17:48:41.677Z,0.53
2018-04-30T17:51:08.955Z,0.80
2018-04-30T17:53:35.200Z,0.80
2018-04-30T17:56:01.481Z,0.80
2018-04-30T17:58:27.696Z,0.80
2018-04-30T18:00:53.911Z,0.63
2018-04-30T18:03:20.127Z,0.80
2018-04-30T18:05:46.337Z,0.90
2018-04-30T18:08:12.595Z,0.70
2018-04-30T18:10:38.835Z,0.70
2018-04-30T18:13:05.427Z,0.70
2018-04-30T18:15:31.700Z,0.60
2018-04-30T18:17:57.996Z,0.80
2018-04-30T18:20:25.268Z,0.90
2018-04-30T18:22:51.888Z,0.60
2018-04-30T18:25:18.125Z,1.00
2018-04-30T18:27:44.696Z,1.00
2018-04-30T18:30:11.591Z,0.97
2018-04-30T18:32:37.852Z,0.80
2018-04-30T18:35:04.465Z,0.80
2018-04-30T18:37:30.710Z,0.67
2018-04-30T18:39:57.305Z,0.60
2018-04-30T18:42:23.563Z,0.87
2018-04-30T18:44:50.434Z,1.10
2018-04-30T18:47:17.040Z,0.80
2018-04-30T18:49:43.218Z,1.00
2018-04-30T18:52:10.353Z,1.10
2018-04-30T18:54:36.600Z,1.00
2018-04-30T18:57:02.871Z,0.90
2018-04-30T18:59:29.099Z,1.00
2018-04-30T19:01:55.353Z,0.90
2018-04-30T19:04:21.578Z,1.00
2018-04-30T19:06:47.820Z,1.03
2018-04-30T19:09:14.137Z,0.90
2018-04-30T19:11:40.734Z,0.63
2018-04-30T19:14:07.005Z,0.87
2018-04-30T19:16:33.611Z,1.30
2018-04-30T19:18:59.888Z,1.20
2018-04-30T19:21:26.183Z,0.93
2018-04-30T19:23:52.440Z,1.00
2018-04-30T19:26:18.723Z,0.77
2018-04-30T19:28:44.954Z,0.90
2018-04-30T19:31:12.198Z,0.70
2018-04-30T19:33:38.503Z,0.90
2018-04-30T19:36:04.849Z,0.70
2018-04-30T19:38:31.057Z,1.10
2018-04-30T19:40:57.342Z,1.17
2018-04-30T19:43:23.562Z,1.20
2018-04-30T19:45:49.903Z,1.53
2018-04-30T19:48:16.151Z,1.70
2018-04-30T19:50:42.443Z,1.10
2018-04-30T19:53:08.719Z,0.80
2018-04-30T19:55:35.034Z,1.30
2018-04-30T19:58:01.272Z,1.07
2018-04-30T20:00:28.485Z,1.20
2018-04-30T20:02:54.720Z,0.83
2018-04-30T20:05:20.935Z,1.30
2018-04-30T20:07:47.138Z,1.00
2018-04-30T20:10:13.402Z,1.17
2018-04-30T20:12:39.650Z,1.10
2018-04-30T20:15:06.287Z,0.90
2018-04-30T20:17:32.542Z,1.30
2018-04-30T20:19:58.805Z,1.60
2018-04-30T20:22:25.182Z,1.27
2018-04-30T20:24:51.539Z,1.30
2018-04-30T20:27:17.776Z,1.30
2018-04-30T20:29:44.081Z,1.37
2018-04-30T20:32:17.190Z,3.83
2018-04-30T20:34:43.450Z,2.90
2018-04-30T20:37:09.701Z,2.37
2018-04-30T20:39:35.965Z,1.73
2018-04-30T20:42:02.263Z,2.23
2018-04-30T20:44:28.926Z,1.73
2018-04-30T20:46:55.483Z,1.37
2018-04-30T20:49:21.722Z,1.37
2018-04-30T20:51:47.976Z,1.97
2018-04-30T20:54:14.197Z,1.40
2018-04-30T20:56:40.424Z,1.60
2018-04-30T20:59:06.655Z,1.50
2018-04-30T21:01:33.400Z,2.60
2018-04-30T21:03:59.628Z,4.43
2018-04-30T21:06:25.941Z,3.07
2018-04-30T21:09:04.231Z,1.90
2018-04-30T21:11:30.425Z,1.80
2018-04-30T21:13:57.016Z,1.40
2018-04-30T21:16:23.366Z,1.60
2018-04-30T21:18:49.568Z,2.17
2018-04-30T21:21:15.827Z,1.80
2018-04-30T21:23:42.083Z,1.97
2018-04-30T21:26:08.381Z,1.87
2018-04-30T21:28:34.625Z,2.05
2018-04-30T21:31:00.827Z,1.47
2018-04-30T21:33:27.055Z,1.57
2018-04-30T21:35:53.302Z,1.33
2018-04-30T21:38:20.123Z,2.10
2018-04-30T21:40:46.344Z,1.45
2018-04-30T21:43:12.595Z,1.95
2018-04-30T21:45:38.817Z,1.83
2018-04-30T21:48:05.066Z,1.83
2018-04-30T21:50:31.296Z,1.90
2018-04-30T21:52:58.444Z,1.60
2018-04-30T21:55:25.033Z,1.80
2018-04-30T21:57:51.902Z,2.00
2018-04-30T22:00:18.147Z,2.30
2018-04-30T22:02:44.715Z,1.85
2018-04-30T22:05:10.962Z,1.90
2018-04-30T22:07:37.175Z,1.98
2018-04-30T22:10:03.530Z,2.28
2018-04-30T22:12:29.810Z,2.50
2018-04-30T22:14:56.072Z,2.78
2018-04-30T22:17:22.299Z,3.62
2018-04-30T22:19:48.561Z,3.40
2018-04-30T22:22:14.814Z,2.20
2018-04-30T22:24:41.430Z,2.08
2018-04-30T22:27:07.685Z,1.85
2018-04-30T22:29:34.267Z,2.12
2018-04-30T22:32:00.518Z,2.17
2018-04-30T22:34:26.758Z,2.10
2018-04-30T22:36:53.001Z,1.85
2018-04-30T22:39:19.194Z,2.85
2018-04-30T22:41:45.412Z,2.70
2018-04-30T22:44:11.621Z,2.50
2018-04-30T22:46:37.819Z,2.50
2018-04-30T22:49:04.065Z,1.62
2018-04-30T22:51:30.278Z,2.15
2018-04-30T22:53:56.493Z,2.53
2018-04-30T22:56:22.715Z,1.52
2018-04-30T22:58:48.945Z,1.70
2018-04-30T23:01:15.137Z,1.98
2018-04-30T23:03:41.357Z,2.08
2018-04-30T23:06:07.578Z,1.70
2018-04-30T23:08:33.782Z,1.70
2018-04-30T23:11:00.053Z,1.80
2018-04-30T23:13:26.268Z,1.90
2018-04-30T23:15:52.489Z,1.65
2018-04-30T23:18:18.749Z,1.95
2018-04-30T23:20:44.979Z,1.62
2018-04-30T23:23:11.193Z,1.60
2018-04-30T23:25:37.447Z,1.90
2018-04-30T23:28:03.664Z,1.80
2018-04-30T23:30:29.887Z,2.20
2018-04-30T23:32:56.129Z,2.08
2018-04-30T23:35:22.356Z,1.95
2018-04-30T23:37:48.602Z,1.95
2018-04-30T23:40:14.830Z,1.95
2018-04-30T23:42:41.053Z,1.70
2018-04-30T23:45:07.315Z,1.58
2018-04-30T23:47:33.521Z,1.75
2018-04-30T23:50:00.124Z,1.70
2018-04-30T23:52:26.363Z,1.73
2018-04-30T23:54:52.600Z,1.50
2018-04-30T23:57:18.816Z,1.90
2018-04-30T23:59:45.051Z,1.60
